createdAt,value
2023-03-06T00:00:59.934Z,17.33
2023-03-06T00:03:27.840Z,14.25
2023-03-06T00:05:57.569Z,16.65
2023-03-06T00:08:26.643Z,13.27
2023-03-06T00:10:56.211Z,13.05
2023-03-06T00:13:23.582Z,14.00
2023-03-06T00:15:52.199Z,15.95
2023-03-06T00:18:19.413Z,16.15
2023-03-06T00:20:46.883Z,17.52
2023-03-06T00:23:14.254Z,14.70
2023-03-06T00:25:45.857Z,14.25
2023-03-06T00:28:15.092Z,13.52
2023-03-06T00:30:46.101Z,14.32
2023-03-06T00:33:13.602Z,11.48
2023-03-06T00:35:42.689Z,12.82
2023-03-06T00:38:12.523Z,13.45
2023-03-06T00:40:40.092Z,12.25
2023-03-06T00:43:07.213Z,11.45
2023-03-06T00:45:36.057Z,11.95
2023-03-06T00:48:03.344Z,14.82
2023-03-06T00:50:30.812Z,11.85
2023-03-06T00:53:00.109Z,11.18
2023-03-06T00:55:29.336Z,10.82
2023-03-06T00:57:56.831Z,10.60
2023-03-06T01:00:24.269Z,11.27
2023-03-06T01:02:53.615Z,11.70
2023-03-06T01:05:22.668Z,11.00
2023-03-06T01:07:49.739Z,11.27
2023-03-06T01:10:17.349Z,13.13
2023-03-06T01:12:45.689Z,12.68
2023-03-06T01:15:14.024Z,12.43
2023-03-06T01:17:41.379Z,11.10
2023-03-06T01:20:14.322Z,13.63
2023-03-06T01:22:44.265Z,13.17
2023-03-06T01:25:11.897Z,12.73
2023-03-06T01:27:39.417Z,13.38
2023-03-06T01:30:07.447Z,12.88
2023-03-06T01:32:35.134Z,13.07
2023-03-06T01:35:03.866Z,13.27
2023-03-06T01:37:31.034Z,10.70
2023-03-06T01:39:58.403Z,11.60
2023-03-06T01:42:25.489Z,13.00
2023-03-06T01:45:32.034Z,11.32
2023-03-06T01:47:59.171Z,9.95
2023-03-06T01:50:26.960Z,10.45
2023-03-06T01:53:00.741Z,9.60
2023-03-06T01:55:34.956Z,9.07
2023-03-06T01:58:08.832Z,9.30
2023-03-06T02:00:36.386Z,8.40
2023-03-06T02:03:06.048Z,8.18
2023-03-06T02:05:34.052Z,8.80
2023-03-06T02:08:02.822Z,9.65
2023-03-06T02:10:30.360Z,8.20
2023-03-06T02:12:59.118Z,7.05
2023-03-06T02:15:28.602Z,7.50
2023-03-06T02:17:56.022Z,7.50
2023-03-06T02:20:43.512Z,7.78
2023-03-06T02:23:40.681Z,7.35
2023-03-06T02:26:12.213Z,7.75
2023-03-06T02:28:40.100Z,7.30
2023-03-06T02:31:08.968Z,7.63
2023-03-06T02:33:36.248Z,5.90
2023-03-06T02:36:06.933Z,5.40
2023-03-06T02:38:42.019Z,5.90
2023-03-06T02:41:09.609Z,5.90
2023-03-06T02:43:39.530Z,7.18
2023-03-06T02:46:07.860Z,7.22
2023-03-06T02:48:35.346Z,8.43
2023-03-06T02:51:03.082Z,6.82
2023-03-06T02:53:30.276Z,9.52
2023-03-06T02:56:00.312Z,8.48
2023-03-06T02:58:27.955Z,7.78
2023-03-06T03:00:55.301Z,7.65
2023-03-06T03:03:22.659Z,7.30
2023-03-06T03:05:50.050Z,8.73
2023-03-06T03:08:25.910Z,7.97
2023-03-06T03:11:00.907Z,6.88
2023-03-06T03:13:32.801Z,6.63
2023-03-06T03:16:07.249Z,7.00
2023-03-06T03:18:34.832Z,6.68
2023-03-06T03:21:06.780Z,6.47
2023-03-06T03:23:37.148Z,6.80
2023-03-06T03:26:13.093Z,6.85
2023-03-06T03:28:44.256Z,7.22
2023-03-06T03:31:14.309Z,7.10
2023-03-06T03:33:41.761Z,7.75
2023-03-06T03:36:10.283Z,7.93
2023-03-06T03:38:41.214Z,7.57
2023-03-06T03:41:08.757Z,6.35
2023-03-06T03:43:36.683Z,7.57
2023-03-06T03:46:04.702Z,7.47
2023-03-06T03:48:32.223Z,8.27
2023-03-06T03:51:11.902Z,6.95
2023-03-06T03:53:43.407Z,7.03
2023-03-06T03:56:16.146Z,8.43
2023-03-06T03:58:52.684Z,6.13
2023-03-06T04:01:20.518Z,8.02
2023-03-06T04:03:48.318Z,8.05
2023-03-06T04:06:17.369Z,8.57
2023-03-06T04:08:44.763Z,25.42
2023-03-06T04:11:12.544Z,15.20
2023-03-06T04:13:42.560Z,16.25
2023-03-06T04:16:10.309Z,11.75
2023-03-06T04:18:38.996Z,10.38
2023-03-06T04:21:08.486Z,14.13
2023-03-06T04:23:35.493Z,14.18
2023-03-06T04:26:04.485Z,10.18
2023-03-06T04:28:31.567Z,8.55
2023-03-06T04:30:59.980Z,24.33
2023-03-06T04:33:27.776Z,12.27
2023-03-06T04:35:55.673Z,16.77
2023-03-06T04:38:27.044Z,12.90
2023-03-06T04:40:54.877Z,11.90
2023-03-06T04:43:22.340Z,17.38
2023-03-06T04:45:49.748Z,31.55
2023-03-06T04:48:19.792Z,17.15
2023-03-06T04:50:47.281Z,15.80
2023-03-06T04:53:15.375Z,18.38
2023-03-06T04:55:42.827Z,13.07
2023-03-06T04:58:13.905Z,11.90
2023-03-06T05:00:44.241Z,11.73
2023-03-06T05:03:15.577Z,12.82
2023-03-06T05:05:43.032Z,22.98
2023-03-06T05:08:15.240Z,28.10
2023-03-06T05:10:44.087Z,30.30
2023-03-06T05:13:11.529Z,41.03
2023-03-06T05:15:42.092Z,48.47
2023-03-06T05:18:09.253Z,34.90
2023-03-06T05:20:36.606Z,30.73
2023-03-06T05:23:03.634Z,25.10
2023-03-06T05:25:31.076Z,30.70
2023-03-06T05:27:58.699Z,25.05
2023-03-06T05:30:26.379Z,28.02
2023-03-06T05:32:56.139Z,41.67
2023-03-06T05:35:23.678Z,37.90
2023-03-06T05:37:51.572Z,34.95
2023-03-06T05:40:19.254Z,37.47
2023-03-06T05:42:46.723Z,33.95
2023-03-06T05:45:14.135Z,34.60
2023-03-06T05:47:41.670Z,30.40
2023-03-06T05:50:10.563Z,35.88
2023-03-06T05:52:39.840Z,36.75
2023-03-06T05:55:08.116Z,33.47
2023-03-06T05:57:35.666Z,45.03
2023-03-06T06:00:04.020Z,34.80
2023-03-06T06:02:43.519Z,45.80
2023-03-06T06:05:13.069Z,60.28
2023-03-06T06:07:41.159Z,39.58
2023-03-06T06:10:09.338Z,41.47
2023-03-06T06:12:36.462Z,29.25
2023-03-06T06:15:04.446Z,23.40
2023-03-06T06:17:32.000Z,20.05
2023-03-06T06:19:59.472Z,51.20
2023-03-06T06:22:26.615Z,16.67
2023-03-06T06:24:53.995Z,19.70
2023-03-06T06:27:21.524Z,19.88
2023-03-06T06:29:53.864Z,23.27
2023-03-06T06:32:21.095Z,17.75
2023-03-06T06:34:48.536Z,18.75
2023-03-06T06:37:17.712Z,19.23
2023-03-06T06:39:45.349Z,16.73
2023-03-06T06:42:38.939Z,22.80
2023-03-06T06:44:59.764Z,24.33
2023-03-06T06:47:26.867Z,21.90
2023-03-06T06:49:55.637Z,17.05
2023-03-06T06:52:26.015Z,23.30
2023-03-06T06:54:53.478Z,22.15
2023-03-06T06:57:20.531Z,55.08
2023-03-06T06:59:47.992Z,43.53
2023-03-06T07:02:16.686Z,49.20
2023-03-06T07:05:02.077Z,36.78
2023-03-06T07:07:34.368Z,34.97
2023-03-06T07:10:05.565Z,29.15
2023-03-06T07:12:35.603Z,52.05
2023-03-06T07:15:08.722Z,40.08
2023-03-06T07:17:36.590Z,44.60
2023-03-06T07:20:08.941Z,51.80
2023-03-06T07:22:49.865Z,47.95
2023-03-06T07:25:18.699Z,29.67
2023-03-06T07:27:52.787Z,33.17
2023-03-06T07:30:25.362Z,38.95
2023-03-06T07:32:55.310Z,31.55
2023-03-06T07:35:23.598Z,23.73
2023-03-06T07:37:51.480Z,48.45
2023-03-06T07:40:19.834Z,36.63
2023-03-06T07:42:47.052Z,38.53
2023-03-06T07:45:18.465Z,31.23
2023-03-06T07:47:45.754Z,47.58
2023-03-06T07:50:13.266Z,51.88
2023-03-06T07:52:40.251Z,30.73
2023-03-06T07:55:08.502Z,43.47
2023-03-06T07:57:36.533Z,27.83
2023-03-06T08:00:13.429Z,46.92
2023-03-06T08:02:41.870Z,67.22
2023-03-06T08:05:13.119Z,36.70
2023-03-06T08:07:40.534Z,40.45
2023-03-06T08:10:08.516Z,47.47
2023-03-06T08:12:37.998Z,37.78
2023-03-06T08:15:05.827Z,39.17
2023-03-06T08:17:32.877Z,48.92
2023-03-06T08:20:00.204Z,42.53
2023-03-06T08:22:27.343Z,55.92
2023-03-06T08:24:58.709Z,41.10
2023-03-06T08:27:25.903Z,25.63
2023-03-06T08:29:54.316Z,25.52
2023-03-06T08:32:22.899Z,33.88
2023-03-06T08:34:51.082Z,49.85
2023-03-06T08:37:18.697Z,42.28
2023-03-06T08:39:46.078Z,22.83
2023-03-06T08:42:13.262Z,115.90
2023-03-06T08:44:40.651Z,48.92
2023-03-06T08:47:08.873Z,186.48
2023-03-06T08:49:38.327Z,120.30
2023-03-06T08:52:08.255Z,241.85
2023-03-06T08:54:36.046Z,61.88
2023-03-06T08:57:03.359Z,34.72
2023-03-06T08:59:33.331Z,51.53
2023-03-06T09:02:00.545Z,323.90
2023-03-06T09:04:32.019Z,85.55
2023-03-06T09:07:02.790Z,94.03
2023-03-06T09:09:32.673Z,64.78
2023-03-06T09:11:59.764Z,199.02
2023-03-06T09:14:27.104Z,59.38
2023-03-06T09:16:58.285Z,106.13
2023-03-06T09:19:25.515Z,49.90
2023-03-06T09:21:53.982Z,115.65
2023-03-06T09:24:21.317Z,46.83
2023-03-06T09:26:51.148Z,16.00
2023-03-06T09:29:19.993Z,48.65
2023-03-06T09:31:47.024Z,19.27
2023-03-06T09:34:14.534Z,19.70
2023-03-06T09:36:55.872Z,42.92
2023-03-06T09:39:25.937Z,17.70
2023-03-06T09:41:54.004Z,18.92
2023-03-06T09:44:26.024Z,25.52
2023-03-06T09:47:30.133Z,14.57
2023-03-06T09:50:35.854Z,23.90
2023-03-06T09:53:33.183Z,76.20
2023-03-06T09:56:12.912Z,61.15
2023-03-06T09:58:49.572Z,21.90
2023-03-06T10:01:23.484Z,40.92
2023-03-06T10:04:00.194Z,23.75
2023-03-06T10:06:39.871Z,26.08
2023-03-06T10:09:11.398Z,18.42
2023-03-06T10:11:44.723Z,19.00
2023-03-06T10:16:54.244Z,25.00
2023-03-06T10:19:22.330Z,13.82
2023-03-06T10:21:49.637Z,18.55
2023-03-06T10:24:54.114Z,15.32
2023-03-06T10:27:42.160Z,40.33
2023-03-06T10:30:32.706Z,31.23
2023-03-06T10:33:37.792Z,42.42
2023-03-06T10:36:05.209Z,60.67
2023-03-06T10:38:32.928Z,16.65
2023-03-06T10:41:12.027Z,51.75
2023-03-06T10:43:42.009Z,38.35
2023-03-06T10:46:26.390Z,34.53
2023-03-06T10:48:59.625Z,22.73
2023-03-06T10:51:27.761Z,19.05
2023-03-06T10:54:01.126Z,11.18
2023-03-06T10:56:34.282Z,10.80
2023-03-06T10:59:17.419Z,10.77
2023-03-06T11:01:49.582Z,36.80
2023-03-06T11:04:23.794Z,33.15
2023-03-06T11:07:19.527Z,29.50
2023-03-06T11:10:01.197Z,37.47
2023-03-06T11:12:44.007Z,28.65
2023-03-06T11:15:25.018Z,48.53
2023-03-06T11:17:58.213Z,43.03
2023-03-06T11:20:33.587Z,29.75
2023-03-06T11:23:17.235Z,45.00
2023-03-06T11:26:02.287Z,47.15
2023-03-06T11:28:34.440Z,21.52
2023-03-06T11:31:17.436Z,37.22
2023-03-06T11:34:07.545Z,56.90
2023-03-06T11:36:56.431Z,122.28
2023-03-06T11:39:49.477Z,20.08
2023-03-06T11:42:27.352Z,60.38
2023-03-06T11:44:57.641Z,48.63
2023-03-06T11:47:39.144Z,29.38
2023-03-06T11:50:27.809Z,60.72
2023-03-06T11:53:03.217Z,32.00
2023-03-06T11:55:48.881Z,37.90
2023-03-06T11:59:03.771Z,27.13
2023-03-06T12:01:50.339Z,31.23
2023-03-06T12:04:43.385Z,17.00
2023-03-06T12:07:37.109Z,13.52
2023-03-06T12:10:24.446Z,14.93
2023-03-06T12:13:09.855Z,21.75
2023-03-06T12:15:41.955Z,30.88
2023-03-06T12:18:18.020Z,31.50
2023-03-06T12:21:05.154Z,36.08
2023-03-06T12:24:07.403Z,18.52
2023-03-06T12:27:12.416Z,19.88
2023-03-06T12:29:53.435Z,17.70
2023-03-06T12:33:05.040Z,19.42
2023-03-06T12:35:56.474Z,14.55
2023-03-06T12:38:47.889Z,16.10
2023-03-06T12:41:26.970Z,15.93
2023-03-06T12:44:00.217Z,27.98
2023-03-06T12:46:28.269Z,17.77
2023-03-06T12:49:08.944Z,16.67
2023-03-06T12:51:37.668Z,12.40
2023-03-06T12:54:05.751Z,18.70
2023-03-06T12:56:33.885Z,21.80
2023-03-06T12:59:02.603Z,15.35
2023-03-06T13:01:48.249Z,11.20
2023-03-06T13:04:27.466Z,13.45
2023-03-06T13:07:23.213Z,24.15
2023-03-06T13:10:13.363Z,31.75
2023-03-06T13:13:17.964Z,28.45
2023-03-06T13:15:47.053Z,22.40
2023-03-06T13:18:42.709Z,20.13
2023-03-06T13:21:51.622Z,12.68
2023-03-06T13:24:21.397Z,16.25
2023-03-06T13:26:53.799Z,19.52
2023-03-06T13:29:36.121Z,19.45
2023-03-06T13:32:03.995Z,14.57
2023-03-06T13:34:40.741Z,19.95
2023-03-06T13:37:14.245Z,17.02
2023-03-06T13:39:59.398Z,25.63
2023-03-06T13:44:55.383Z,23.52
2023-03-06T13:47:59.018Z,17.52
2023-03-06T13:50:41.325Z,16.17
2023-03-06T13:53:26.816Z,19.83
2023-03-06T13:56:42.641Z,30.63
2023-03-06T13:59:39.487Z,44.30
2023-03-06T14:02:55.897Z,53.65
2023-03-06T14:05:34.720Z,41.88
2023-03-06T14:08:11.874Z,101.45
2023-03-06T14:10:39.499Z,112.22
2023-03-06T14:13:17.741Z,33.67
2023-03-06T14:15:52.613Z,103.03
2023-03-06T14:18:23.890Z,41.63
2023-03-06T14:20:58.749Z,55.72
2023-03-06T14:23:33.401Z,101.28
2023-03-06T14:26:00.671Z,37.83
2023-03-06T14:28:30.375Z,58.83
2023-03-06T14:30:59.848Z,92.32
2023-03-06T14:33:36.757Z,41.15
2023-03-06T14:36:09.524Z,40.00
2023-03-06T14:38:51.908Z,55.90
2023-03-06T14:41:31.965Z,37.72
2023-03-06T14:44:19.976Z,47.45
2023-03-06T14:46:50.705Z,41.20
2023-03-06T14:49:20.721Z,39.42
2023-03-06T14:51:51.680Z,43.83
2023-03-06T14:54:22.301Z,38.13
2023-03-06T14:56:54.122Z,38.70
2023-03-06T14:59:26.110Z,40.17
2023-03-06T15:02:02.576Z,24.63
2023-03-06T15:04:38.660Z,37.67
2023-03-06T15:07:21.284Z,31.33
2023-03-06T15:09:50.672Z,42.78
2023-03-06T15:12:20.938Z,34.22
2023-03-06T15:14:49.686Z,49.33
2023-03-06T15:17:29.229Z,42.35
2023-03-06T15:19:58.946Z,43.60
2023-03-06T15:22:42.345Z,50.72
2023-03-06T15:25:15.234Z,47.72
2023-03-06T15:28:08.254Z,65.07
2023-03-06T15:30:36.646Z,70.88
2023-03-06T15:33:23.917Z,118.13
2023-03-06T15:35:57.254Z,123.25
2023-03-06T15:38:46.093Z,121.22
2023-03-06T15:41:33.431Z,122.25
2023-03-06T15:44:02.895Z,122.72
2023-03-06T15:46:30.162Z,165.05
2023-03-06T15:49:03.355Z,117.40
2023-03-06T15:51:31.836Z,38.58
2023-03-06T15:54:11.867Z,28.92
2023-03-06T15:56:42.735Z,25.92
2023-03-06T15:59:26.541Z,54.50
2023-03-06T16:01:54.543Z,52.47
2023-03-06T16:04:21.958Z,53.22
2023-03-06T16:06:48.977Z,58.00
2023-03-06T16:09:19.131Z,52.92
2023-03-06T16:11:47.334Z,47.85
2023-03-06T16:14:21.180Z,49.35
2023-03-06T16:16:49.264Z,51.75
2023-03-06T16:19:29.006Z,70.68
2023-03-06T16:21:57.062Z,49.45
2023-03-06T16:24:26.118Z,44.70
2023-03-06T16:27:01.948Z,31.23
2023-03-06T16:29:32.571Z,31.35
2023-03-06T16:32:01.758Z,31.85
2023-03-06T16:34:29.277Z,38.47
2023-03-06T16:36:56.553Z,39.13
2023-03-06T16:39:24.646Z,35.92
2023-03-06T16:41:52.671Z,30.08
2023-03-06T16:44:21.047Z,31.90
2023-03-06T16:46:52.721Z,31.15
2023-03-06T16:49:24.049Z,31.88
2023-03-06T16:51:52.010Z,38.53
2023-03-06T16:54:20.288Z,20.10
2023-03-06T16:56:47.489Z,16.05
2023-03-06T16:59:14.951Z,8.95
2023-03-06T17:01:45.316Z,10.88
2023-03-06T17:04:12.829Z,25.45
2023-03-06T17:06:41.962Z,19.20
2023-03-06T17:09:14.328Z,97.57
2023-03-06T17:11:43.451Z,87.07
2023-03-06T17:14:10.952Z,57.88
2023-03-06T17:16:42.109Z,29.90
2023-03-06T17:19:15.196Z,96.80
2023-03-06T17:21:43.407Z,76.97
2023-03-06T17:24:11.097Z,57.20
2023-03-06T17:26:40.242Z,50.60
2023-03-06T17:29:07.531Z,79.97
2023-03-06T17:31:34.931Z,89.00
2023-03-06T17:34:02.264Z,68.53
2023-03-06T17:36:33.392Z,77.35
2023-03-06T17:39:02.859Z,71.60
2023-03-06T17:41:32.713Z,48.92
2023-03-06T17:44:02.836Z,40.95
2023-03-06T17:46:32.124Z,44.95
2023-03-06T17:48:59.784Z,130.25
2023-03-06T17:51:29.717Z,146.90
2023-03-06T17:53:57.647Z,115.43
2023-03-06T17:56:26.105Z,121.20
2023-03-06T17:58:53.562Z,113.93
2023-03-06T18:01:23.638Z,110.40
2023-03-06T18:03:51.672Z,54.97
2023-03-06T18:06:20.963Z,56.35
2023-03-06T18:08:51.019Z,59.70
2023-03-06T18:11:20.184Z,81.97
2023-03-06T18:13:48.984Z,62.58
2023-03-06T18:16:19.948Z,106.63
2023-03-06T18:18:47.528Z,71.68
2023-03-06T18:21:16.934Z,71.82
2023-03-06T18:23:44.304Z,78.75
2023-03-06T18:26:20.745Z,65.05
2023-03-06T18:28:55.086Z,93.70
2023-03-06T18:31:27.748Z,96.95
2023-03-06T18:33:57.978Z,88.57
2023-03-06T18:36:27.383Z,124.13
2023-03-06T18:38:55.696Z,87.07
2023-03-06T18:41:23.440Z,102.10
2023-03-06T18:43:59.068Z,74.63
2023-03-06T18:46:30.321Z,81.25
2023-03-06T18:48:57.673Z,90.65
2023-03-06T18:51:25.161Z,107.35
2023-03-06T18:53:57.702Z,67.45
2023-03-06T18:56:25.264Z,98.30
2023-03-06T18:58:53.557Z,70.78
2023-03-06T19:01:22.476Z,55.42
2023-03-06T19:03:50.531Z,64.95
2023-03-06T19:06:18.645Z,101.90
2023-03-06T19:08:46.280Z,73.72
2023-03-06T19:11:15.714Z,116.75
2023-03-06T19:13:43.855Z,127.80
2023-03-06T19:16:18.734Z,107.00
2023-03-06T19:18:46.133Z,148.55
2023-03-06T19:21:19.272Z,208.95
2023-03-06T19:23:47.429Z,194.02
2023-03-06T19:26:15.551Z,203.82
2023-03-06T19:28:43.466Z,154.68
2023-03-06T19:31:13.243Z,99.47
2023-03-06T19:33:41.970Z,68.97
2023-03-06T19:36:11.132Z,59.75
2023-03-06T19:38:39.110Z,44.63
2023-03-06T19:41:11.755Z,67.07
2023-03-06T19:43:43.597Z,87.22
2023-03-06T19:46:14.207Z,107.07
2023-03-06T19:48:42.365Z,94.88
2023-03-06T19:51:10.889Z,85.15
2023-03-06T19:53:41.619Z,93.60
2023-03-06T19:56:13.169Z,77.75
2023-03-06T19:58:44.446Z,62.10
2023-03-06T20:01:17.053Z,49.55
2023-03-06T20:03:50.563Z,44.65
2023-03-06T20:06:19.437Z,45.90
2023-03-06T20:08:47.963Z,50.55
2023-03-06T20:11:19.847Z,72.05
2023-03-06T20:13:48.016Z,63.15
2023-03-06T20:16:16.580Z,47.45
2023-03-06T20:18:45.417Z,47.83
2023-03-06T20:21:15.236Z,46.78
2023-03-06T20:23:42.918Z,50.13
2023-03-06T20:26:13.057Z,61.58
2023-03-06T20:28:42.196Z,120.68
2023-03-06T20:31:25.999Z,52.65
2023-03-06T20:33:55.338Z,53.60
2023-03-06T20:36:31.425Z,42.20
2023-03-06T20:39:05.630Z,47.45
2023-03-06T20:41:33.158Z,40.42
2023-03-06T20:44:03.975Z,41.78
2023-03-06T20:46:31.963Z,47.42
2023-03-06T20:49:00.453Z,51.47
2023-03-06T20:51:31.468Z,44.10
2023-03-06T20:54:00.912Z,41.50
2023-03-06T20:56:32.049Z,43.90
2023-03-06T20:58:59.835Z,50.35
2023-03-06T21:01:29.495Z,52.47
2023-03-06T21:03:58.159Z,40.63
2023-03-06T21:06:27.030Z,41.95
2023-03-06T21:08:59.107Z,43.10
2023-03-06T21:11:26.968Z,42.85
2023-03-06T21:13:54.872Z,54.13
2023-03-06T21:16:24.613Z,43.35
2023-03-06T21:18:53.927Z,39.22
2023-03-06T21:21:24.135Z,38.38
2023-03-06T21:23:51.512Z,55.10
2023-03-06T21:26:21.301Z,100.28
2023-03-06T21:28:49.212Z,80.03
2023-03-06T21:31:21.296Z,114.45
2023-03-06T21:33:49.883Z,189.95
2023-03-06T21:36:18.791Z,192.75
2023-03-06T21:38:47.844Z,140.68
2023-03-06T21:41:20.921Z,121.22
2023-03-06T21:43:59.242Z,66.60
2023-03-06T21:46:28.517Z,94.40
2023-03-06T21:48:58.347Z,93.80
2023-03-06T21:51:29.330Z,159.52
2023-03-06T21:53:56.827Z,155.55
2023-03-06T21:56:25.593Z,86.97
2023-03-06T21:58:53.358Z,59.22
2023-03-06T22:01:23.142Z,48.05
2023-03-06T22:03:50.866Z,48.55
2023-03-06T22:06:20.179Z,44.90
2023-03-06T22:08:48.084Z,59.88
2023-03-06T22:11:17.909Z,88.72
2023-03-06T22:13:47.931Z,78.53
2023-03-06T22:16:16.031Z,54.60
2023-03-06T22:18:49.442Z,47.83
2023-03-06T22:21:18.739Z,42.53
2023-03-06T22:23:50.966Z,45.55
2023-03-06T22:26:18.381Z,44.78
2023-03-06T22:28:46.117Z,47.03
2023-03-06T22:31:23.951Z,49.38
2023-03-06T22:33:56.477Z,40.78
2023-03-06T22:36:24.215Z,47.78
2023-03-06T22:38:55.858Z,40.75
2023-03-06T22:41:22.963Z,38.15
2023-03-06T22:43:50.741Z,41.45
2023-03-06T22:46:18.477Z,34.55
2023-03-06T22:48:45.829Z,35.63
2023-03-06T22:51:16.329Z,35.03
2023-03-06T22:53:44.868Z,36.85
2023-03-06T22:56:14.437Z,34.47
2023-03-06T22:58:42.062Z,41.10
2023-03-06T23:01:17.717Z,36.47
2023-03-06T23:03:47.715Z,32.85
2023-03-06T23:06:16.720Z,31.77
2023-03-06T23:08:48.544Z,30.85
2023-03-06T23:11:17.057Z,30.73
2023-03-06T23:14:05.423Z,28.67
2023-03-06T23:16:54.214Z,32.40
2023-03-06T23:19:40.816Z,31.27
2023-03-06T23:22:27.271Z,31.98
2023-03-06T23:25:14.711Z,34.38
2023-03-06T23:27:41.823Z,35.42
2023-03-06T23:30:09.828Z,43.08
2023-03-06T23:32:37.381Z,41.78
2023-03-06T23:35:05.211Z,39.50
2023-03-06T23:37:32.283Z,39.10
2023-03-06T23:39:59.843Z,36.83
2023-03-06T23:42:27.135Z,42.20
2023-03-06T23:44:54.591Z,69.30
2023-03-06T23:47:21.649Z,59.88
2023-03-06T23:49:49.132Z,48.05
2023-03-06T23:52:16.203Z,40.47
2023-03-06T23:54:43.848Z,36.10
2023-03-06T23:57:10.815Z,29.48
2023-03-06T23:59:38.770Z,28.20
